Anadarko, Texas
Current Conditions -  °F | °C
As of 11:35 PM on Sunday 21 Dec 2014 (Local Time) from KRFI Reporting Station
Overcast Overcast  
Wind Chill: 50°   Ceiling: 3000
Heat Index: 50°   Visibility: 10mi
Dew Point: 48°   Wind: 8mph
Humidity: 92%   Direction: 170°S
Pressure: 29.85"   Gusts: NA
Location:  31.9447°N, 94.855°W
Report Text: KRFI 220535Z AUTO 17007KT 10SM SCT009 OVC030 10/09 A2985 RMK AO2 T01020089
Loading
Personal Weather Stations






























Interactive Weather Map New forecast layout! Learn more

10-Day Weather Forecast

Advertisements
Track Severe Weather on mobile